In Rescue
 
Open Full Screen Window  High Contrast Mode
October 19, 2019 9:52 AM PDT
Weather Information
Wind Direction
  ---
Wind Speed
  00 kt (0 mph)
Wind Gust
  00 kt (0 mph)
Altimeter
29.97 in
Visibility
10 SM
Temperature
21° C
70° F
Dewpoint
00° C
32° F
Humidity
25%
1hr Rain Fall
00.00 in.
24hr Rain Fall
00.00 in.
Sky Condition
Clear
VFR

METAR KSBD 191652Z AUTO 00000KT 10SM CLR 21/00 A2997 RMK AO2 T02050000

FAA Disclaimer: The data displayed is for advisory purposes only and is not to be used for flight planning or operations.